createdAt,value
2016-09-28T00:00:03.981Z,1013.02
2016-09-28T00:00:25.716Z,1013.05
2016-09-28T00:00:47.460Z,1012.88
2016-09-28T00:01:09.189Z,1012.78
2016-09-28T00:01:30.942Z,1012.84
2016-09-28T00:01:52.650Z,1012.84
2016-09-28T00:02:14.385Z,1012.82
2016-09-28T00:02:36.129Z,1012.86
2016-09-28T00:02:57.848Z,1012.74
2016-09-28T00:03:19.585Z,1012.75
2016-09-28T00:03:41.309Z,1012.74
2016-09-28T00:04:03.025Z,1012.69
2016-09-28T00:04:29.521Z,1012.80
2016-09-28T00:04:51.252Z,1012.84
2016-09-28T00:05:39.473Z,1012.71
2016-09-28T00:06:01.201Z,1012.86
2016-09-28T00:06:22.923Z,1013.02
2016-09-28T00:06:44.696Z,1012.88
2016-09-28T00:07:06.421Z,1012.96
2016-09-28T00:07:28.155Z,1012.94
2016-09-28T00:07:49.873Z,1012.97
2016-09-28T00:08:11.595Z,1012.85
2016-09-28T00:08:33.323Z,1013.04
2016-09-28T00:08:55.051Z,1012.92
2016-09-28T00:09:16.773Z,1012.83
2016-09-28T00:09:38.497Z,1012.94
2016-09-28T00:10:00.231Z,1012.84
2016-09-28T00:10:21.970Z,1012.91
2016-09-28T00:10:43.694Z,1012.92
2016-09-28T00:11:05.431Z,1012.88
2016-09-28T00:11:27.153Z,1012.77
2016-09-28T00:11:48.882Z,1012.68
2016-09-28T00:12:10.606Z,1012.74
2016-09-28T00:12:32.349Z,1012.76
2016-09-28T00:12:54.074Z,1012.83
2016-09-28T00:13:15.797Z,1012.86
2016-09-28T00:13:37.512Z,1012.82
2016-09-28T00:13:59.240Z,1012.85
2016-09-28T00:14:20.958Z,1012.64
2016-09-28T00:14:42.670Z,1012.54
2016-09-28T00:15:04.391Z,1012.79
2016-09-28T00:15:26.113Z,1012.93
2016-09-28T00:15:47.850Z,1012.81
2016-09-28T00:16:09.575Z,1012.83
2016-09-28T00:16:36.075Z,1012.86
2016-09-28T00:16:57.797Z,1012.73
2016-09-28T00:17:19.515Z,1012.94
2016-09-28T00:17:41.243Z,1012.89
2016-09-28T00:18:02.961Z,1013.05
2016-09-28T00:18:24.686Z,1012.90
2016-09-28T00:18:46.413Z,1013.05
2016-09-28T00:19:13.105Z,1012.93
2016-09-28T00:19:34.830Z,1012.84
2016-09-28T00:19:56.549Z,1013.04
2016-09-28T00:20:18.273Z,1012.87
2016-09-28T00:20:39.995Z,1012.93
2016-09-28T00:21:02.722Z,1013.01
2016-09-28T00:21:24.452Z,1013.02
2016-09-28T00:21:47.244Z,1012.89
2016-09-28T00:22:08.968Z,1012.96
2016-09-28T00:22:30.696Z,1013.41
2016-09-28T00:22:55.230Z,1013.05
2016-09-28T00:23:16.945Z,1013.16
2016-09-28T00:23:38.670Z,1013.13
2016-09-28T00:24:00.395Z,1013.24
2016-09-28T00:24:48.619Z,1013.19
2016-09-28T00:25:10.341Z,1013.17
2016-09-28T00:25:32.065Z,1013.11
2016-09-28T00:25:53.784Z,1013.09
2016-09-28T00:26:15.509Z,1013.22
2016-09-28T00:26:37.217Z,1013.13
2016-09-28T00:26:58.959Z,1013.21
2016-09-28T00:27:47.172Z,1013.14
2016-09-28T00:28:08.900Z,1013.11
2016-09-28T00:28:30.626Z,1013.09
2016-09-28T00:28:52.350Z,1013.20
2016-09-28T00:29:14.075Z,1013.26
2016-09-28T00:29:35.874Z,1013.19
2016-09-28T00:29:57.605Z,1013.29
2016-09-28T00:30:19.345Z,1013.15
2016-09-28T00:30:41.067Z,1013.16
2016-09-28T00:31:02.798Z,1013.01
2016-09-28T00:31:24.523Z,1013.11
2016-09-28T00:31:46.250Z,1013.06
2016-09-28T00:32:07.975Z,1013.05
2016-09-28T00:32:29.704Z,1012.92
2016-09-28T00:32:51.422Z,1013.09
2016-09-28T00:33:13.147Z,1013.10
2016-09-28T00:33:34.865Z,1012.98
2016-09-28T00:33:56.590Z,1013.03
2016-09-28T00:34:18.312Z,1013.12
2016-09-28T00:34:40.037Z,1013.14
2016-09-28T00:35:01.758Z,1013.06
2016-09-28T00:35:23.489Z,1013.10
2016-09-28T00:35:45.224Z,1013.16
2016-09-28T00:36:06.961Z,1013.12
2016-09-28T00:36:28.686Z,1013.11
2016-09-28T00:36:50.430Z,1013.08
2016-09-28T00:37:12.158Z,1013.20
2016-09-28T00:37:33.885Z,1013.14
2016-09-28T00:37:55.607Z,1013.15
2016-09-28T00:38:17.329Z,1013.17
2016-09-28T00:38:39.051Z,1013.12
2016-09-28T00:39:00.773Z,1013.04
2016-09-28T00:39:22.516Z,1013.13
2016-09-28T00:39:44.241Z,1013.09
2016-09-28T00:40:05.963Z,1013.17
2016-09-28T00:40:27.680Z,1013.02
2016-09-28T00:40:49.393Z,1013.33
2016-09-28T00:41:11.115Z,1013.32
2016-09-28T00:41:32.826Z,1013.24
2016-09-28T00:41:54.552Z,1013.19
2016-09-28T00:42:16.277Z,1013.17
2016-09-28T00:42:37.995Z,1013.15
2016-09-28T00:42:59.732Z,1013.21
2016-09-28T00:43:21.447Z,1013.12
2016-09-28T00:43:43.179Z,1013.26
2016-09-28T00:44:04.903Z,1013.10
2016-09-28T00:44:26.625Z,1013.18
2016-09-28T00:44:48.340Z,1013.33
2016-09-28T00:45:10.078Z,1013.27
2016-09-28T00:45:31.809Z,1013.33
2016-09-28T00:45:53.537Z,1013.19
2016-09-28T00:46:15.255Z,1013.17
2016-09-28T00:46:36.977Z,1013.18
2016-09-28T00:46:58.712Z,1013.12
2016-09-28T00:47:20.433Z,1013.29
2016-09-28T00:47:42.158Z,1013.13
2016-09-28T00:48:03.885Z,1013.14
2016-09-28T00:48:25.601Z,1013.12
2016-09-28T00:48:47.322Z,1013.14
2016-09-28T00:49:09.121Z,1013.14
2016-09-28T00:49:35.610Z,1013.36
2016-09-28T00:49:57.355Z,1013.30
2016-09-28T00:50:19.124Z,1013.08
2016-09-28T00:50:40.846Z,1013.07
2016-09-28T00:51:02.592Z,1013.01
2016-09-28T00:51:24.311Z,1013.11
2016-09-28T00:51:46.026Z,1013.12
2016-09-28T00:52:12.521Z,1013.33
2016-09-28T00:52:34.231Z,1013.13
2016-09-28T00:52:55.969Z,1013.08
2016-09-28T00:53:17.675Z,1013.20
2016-09-28T00:53:39.396Z,1013.12
2016-09-28T00:54:01.112Z,1013.08
2016-09-28T00:54:22.842Z,1013.14
2016-09-28T00:54:44.554Z,1013.12
2016-09-28T00:55:06.286Z,1013.12
2016-09-28T00:55:28.014Z,1013.17
2016-09-28T00:55:49.821Z,1013.29
2016-09-28T00:56:11.549Z,1013.22
2016-09-28T00:56:33.274Z,1013.05
2016-09-28T00:56:54.999Z,1013.05
2016-09-28T00:57:16.714Z,1013.03
2016-09-28T00:57:38.449Z,1012.98
2016-09-28T00:58:00.180Z,1012.94
2016-09-28T00:58:21.902Z,1013.05
2016-09-28T00:58:43.623Z,1013.19
2016-09-28T00:59:05.341Z,1013.03
2016-09-28T00:59:27.064Z,1012.93
2016-09-28T00:59:48.794Z,1013.07
2016-09-28T01:00:10.515Z,1013.12
2016-09-28T01:00:32.240Z,1013.02
2016-09-28T01:00:53.956Z,1013.11
2016-09-28T01:01:20.461Z,1013.16
2016-09-28T01:01:42.180Z,1013.13
2016-09-28T01:02:03.898Z,1013.05
2016-09-28T01:02:25.619Z,1013.04
2016-09-28T01:02:47.370Z,1013.15
2016-09-28T01:03:09.083Z,1013.10
2016-09-28T01:03:30.818Z,1013.06
2016-09-28T01:03:52.535Z,1013.26
2016-09-28T01:04:14.260Z,1013.15
2016-09-28T01:04:35.975Z,1013.18
2016-09-28T01:04:57.716Z,1013.17
2016-09-28T01:05:19.441Z,1013.24
2016-09-28T01:05:41.159Z,1013.32
2016-09-28T01:06:02.880Z,1013.17
2016-09-28T01:06:24.611Z,1013.21
2016-09-28T01:06:46.349Z,1013.35
2016-09-28T01:07:08.078Z,1013.27
2016-09-28T01:07:29.796Z,1013.26
2016-09-28T01:07:51.520Z,1013.18
2016-09-28T01:08:13.242Z,1013.05
2016-09-28T01:08:34.964Z,1013.12
2016-09-28T01:08:56.685Z,1013.28
2016-09-28T01:09:18.419Z,1013.28
2016-09-28T01:09:40.148Z,1013.43
2016-09-28T01:10:01.868Z,1013.22
2016-09-28T01:10:50.083Z,1013.30
2016-09-28T01:11:11.805Z,1013.34
2016-09-28T01:11:33.539Z,1013.32
2016-09-28T01:12:21.769Z,1013.18
2016-09-28T01:12:43.485Z,1013.27
2016-09-28T01:13:05.229Z,1013.24
2016-09-28T01:13:26.949Z,1013.24
2016-09-28T01:13:48.664Z,1013.27
2016-09-28T01:14:10.447Z,1013.14
2016-09-28T01:14:32.175Z,1013.13
2016-09-28T01:14:53.900Z,1013.29
2016-09-28T01:15:20.405Z,1013.33
2016-09-28T01:15:42.134Z,1013.26
2016-09-28T01:16:03.849Z,1013.19
2016-09-28T01:16:25.577Z,1013.26
2016-09-28T01:16:47.301Z,1013.20
2016-09-28T01:17:09.027Z,1013.26
2016-09-28T01:17:30.763Z,1013.31
2016-09-28T01:17:52.482Z,1013.13
2016-09-28T01:18:14.210Z,1013.29
2016-09-28T01:18:40.702Z,1013.13
2016-09-28T01:19:02.424Z,1013.20
2016-09-28T01:19:24.146Z,1013.17
2016-09-28T01:19:45.861Z,1013.28
2016-09-28T01:20:07.589Z,1013.30
2016-09-28T01:20:29.318Z,1013.39
2016-09-28T01:20:51.039Z,1013.29
2016-09-28T01:21:39.254Z,1013.23
2016-09-28T01:22:00.978Z,1013.33
2016-09-28T01:22:22.693Z,1013.22
2016-09-28T01:22:44.408Z,1013.20
2016-09-28T01:23:10.911Z,1013.15
2016-09-28T01:23:32.633Z,1013.32
2016-09-28T01:23:54.348Z,1013.07
2016-09-28T01:24:16.069Z,1013.11
2016-09-28T01:24:37.794Z,1013.20
2016-09-28T01:24:59.496Z,1013.32
2016-09-28T01:25:21.230Z,1013.19
2016-09-28T01:25:42.950Z,1013.19
2016-09-28T01:26:04.673Z,1013.35
2016-09-28T01:26:26.405Z,1013.40
2016-09-28T01:26:48.113Z,1013.46
2016-09-28T01:27:09.833Z,1013.32
2016-09-28T01:27:31.566Z,1013.21
2016-09-28T01:27:53.305Z,1013.17
2016-09-28T01:28:15.019Z,1013.20
2016-09-28T01:28:36.748Z,1013.25
2016-09-28T01:28:58.473Z,1013.18
2016-09-28T01:29:20.197Z,1013.17
2016-09-28T01:29:41.915Z,1013.24
2016-09-28T01:30:03.637Z,1013.16
2016-09-28T01:30:25.365Z,1013.03
2016-09-28T01:30:47.083Z,1013.30
2016-09-28T01:31:09.813Z,1013.18
2016-09-28T01:31:31.531Z,1013.11
2016-09-28T01:31:58.025Z,1013.21
2016-09-28T01:32:19.739Z,1013.29
2016-09-28T01:32:41.454Z,1013.29
2016-09-28T01:33:03.186Z,1013.36
2016-09-28T01:33:24.897Z,1013.33
2016-09-28T01:33:46.623Z,1013.32
2016-09-28T01:34:08.347Z,1013.20
2016-09-28T01:34:30.062Z,1013.28
2016-09-28T01:34:51.774Z,1013.25
2016-09-28T01:35:13.506Z,1013.13
2016-09-28T01:35:35.227Z,1013.12
2016-09-28T01:35:56.945Z,1013.18
2016-09-28T01:36:18.677Z,1013.17
2016-09-28T01:36:40.396Z,1013.21
2016-09-28T01:37:02.123Z,1013.22
2016-09-28T01:37:23.832Z,1013.15
2016-09-28T01:37:45.556Z,1013.14
2016-09-28T01:38:07.275Z,1013.13
2016-09-28T01:38:29.000Z,1013.23
2016-09-28T01:38:50.731Z,1013.12
2016-09-28T01:39:12.532Z,1013.12
2016-09-28T01:39:34.261Z,1013.23
2016-09-28T01:39:55.983Z,1013.11
2016-09-28T01:40:17.700Z,1013.21
2016-09-28T01:40:39.422Z,1013.17
2016-09-28T01:41:27.643Z,1013.13
2016-09-28T01:41:49.365Z,1013.06
2016-09-28T01:42:11.094Z,1013.09
2016-09-28T01:42:32.811Z,1013.23
2016-09-28T01:43:21.022Z,1013.20
2016-09-28T01:43:42.740Z,1013.08
2016-09-28T01:44:04.468Z,1013.05
2016-09-28T01:44:26.248Z,1012.93
2016-09-28T01:44:47.966Z,1013.18
2016-09-28T01:45:09.688Z,1012.97
2016-09-28T01:45:31.402Z,1013.08
2016-09-28T01:45:53.124Z,1012.94
2016-09-28T01:46:14.844Z,1013.08
2016-09-28T01:46:36.562Z,1012.89
2016-09-28T01:46:58.273Z,1012.92
2016-09-28T01:47:19.985Z,1012.98
2016-09-28T01:47:41.710Z,1012.99
2016-09-28T01:48:03.438Z,1012.95
2016-09-28T01:48:25.224Z,1012.98
2016-09-28T01:48:46.954Z,1013.01
2016-09-28T01:49:08.676Z,1012.97
2016-09-28T01:49:30.391Z,1012.89
2016-09-28T01:49:52.113Z,1012.82
2016-09-28T01:50:13.829Z,1012.82
2016-09-28T01:50:35.544Z,1012.73
2016-09-28T01:50:57.268Z,1012.73
2016-09-28T01:51:19.003Z,1012.65
2016-09-28T01:51:40.718Z,1012.69
2016-09-28T01:52:02.455Z,1012.77
2016-09-28T01:52:24.171Z,1012.84
2016-09-28T01:52:45.896Z,1012.68
2016-09-28T01:53:07.611Z,1012.69
2016-09-28T01:53:29.335Z,1012.74
2016-09-28T01:53:51.143Z,1012.92
2016-09-28T01:54:12.868Z,1012.78
2016-09-28T01:54:34.597Z,1012.71
2016-09-28T01:54:56.318Z,1012.77
2016-09-28T01:55:18.036Z,1012.81
2016-09-28T01:55:39.757Z,1012.75
2016-09-28T01:56:01.476Z,1012.88
2016-09-28T01:56:27.969Z,1012.75
2016-09-28T01:56:49.687Z,1012.73
2016-09-28T01:57:11.440Z,1012.67
2016-09-28T01:57:33.150Z,1012.90
2016-09-28T01:57:54.865Z,1012.84
2016-09-28T01:58:16.596Z,1013.00
2016-09-28T01:58:38.312Z,1012.93
2016-09-28T01:59:00.022Z,1012.82
2016-09-28T01:59:21.742Z,1012.71
2016-09-28T01:59:48.235Z,1012.74
2016-09-28T02:00:10.020Z,1012.95
2016-09-28T02:00:31.745Z,1012.79
2016-09-28T02:00:55.687Z,1012.71
2016-09-28T02:01:17.415Z,1012.80
2016-09-28T02:01:39.136Z,1012.80
2016-09-28T02:02:00.855Z,1012.76
2016-09-28T02:02:22.573Z,1012.99
2016-09-28T02:02:44.372Z,1012.99
2016-09-28T02:03:06.110Z,1012.85
2016-09-28T02:03:27.838Z,1012.55
2016-09-28T02:03:49.553Z,1012.96
2016-09-28T02:04:11.278Z,1012.92
2016-09-28T02:04:32.996Z,1012.82
2016-09-28T02:04:54.714Z,1012.92
2016-09-28T02:05:16.427Z,1012.75
2016-09-28T02:05:38.145Z,1012.89
2016-09-28T02:05:59.863Z,1012.84
2016-09-28T02:06:21.582Z,1012.94
2016-09-28T02:06:43.379Z,1012.92
2016-09-28T02:07:05.095Z,1012.91
2016-09-28T02:07:26.814Z,1012.87
2016-09-28T02:07:48.522Z,1012.81
2016-09-28T02:08:10.251Z,1012.87
2016-09-28T02:08:31.969Z,1012.89
2016-09-28T02:08:53.700Z,1012.79
2016-09-28T02:09:15.418Z,1012.92
2016-09-28T02:09:37.143Z,1012.86
2016-09-28T02:09:58.867Z,1013.03
2016-09-28T02:10:20.589Z,1012.97
2016-09-28T02:10:42.318Z,1012.76
2016-09-28T02:11:04.036Z,1012.83
2016-09-28T02:11:25.750Z,1012.98
2016-09-28T02:11:47.466Z,1012.95
2016-09-28T02:12:09.261Z,1012.88
2016-09-28T02:12:30.983Z,1013.03
2016-09-28T02:12:52.698Z,1012.84
2016-09-28T02:13:14.416Z,1012.92
2016-09-28T02:13:36.143Z,1012.88
2016-09-28T02:13:57.850Z,1012.79
2016-09-28T02:14:19.571Z,1012.76
2016-09-28T02:14:41.293Z,1012.81
2016-09-28T02:15:03.018Z,1012.84
2016-09-28T02:15:24.727Z,1012.76
2016-09-28T02:15:46.446Z,1012.79
2016-09-28T02:16:08.174Z,1012.87
2016-09-28T02:16:29.891Z,1012.78
2016-09-28T02:16:51.610Z,1012.84
2016-09-28T02:17:18.116Z,1012.72
2016-09-28T02:17:39.837Z,1012.69
2016-09-28T02:18:01.587Z,1012.85
2016-09-28T02:18:23.319Z,1012.71
2016-09-28T02:18:45.034Z,1012.90
2016-09-28T02:19:06.765Z,1012.93
2016-09-28T02:19:28.483Z,1012.86
2016-09-28T02:19:50.205Z,1012.94
2016-09-28T02:20:11.930Z,1012.80
2016-09-28T02:20:33.651Z,1012.69
2016-09-28T02:20:55.389Z,1012.67
2016-09-28T02:21:17.107Z,1012.78
2016-09-28T02:21:38.823Z,1012.91
2016-09-28T02:22:00.544Z,1012.80
2016-09-28T02:22:22.269Z,1012.79
2016-09-28T02:22:43.978Z,1012.68
2016-09-28T02:23:05.689Z,1012.64
2016-09-28T02:23:27.430Z,1012.73
2016-09-28T02:23:49.146Z,1012.77
2016-09-28T02:24:10.890Z,1012.72
2016-09-28T02:24:32.614Z,1012.72
2016-09-28T02:24:54.333Z,1012.65
2016-09-28T02:25:16.067Z,1012.77
2016-09-28T02:25:42.562Z,1012.83
2016-09-28T02:26:04.364Z,1012.67
2016-09-28T02:26:26.113Z,1012.75
2016-09-28T02:26:47.828Z,1012.66
2016-09-28T02:27:09.546Z,1012.65
2016-09-28T02:27:31.258Z,1012.69
2016-09-28T02:27:52.989Z,1012.69
2016-09-28T02:28:14.704Z,1012.79
2016-09-28T02:28:36.426Z,1012.69
2016-09-28T02:28:58.148Z,1012.78
2016-09-28T02:29:20.872Z,1012.56
2016-09-28T02:29:42.598Z,1012.74
2016-09-28T02:30:04.317Z,1012.91
2016-09-28T02:30:26.032Z,1012.74
2016-09-28T02:30:47.750Z,1012.65
2016-09-28T02:31:09.466Z,1012.83
2016-09-28T02:31:31.181Z,1012.53
2016-09-28T02:31:52.964Z,1012.64
2016-09-28T02:32:14.692Z,1012.71
2016-09-28T02:32:36.419Z,1012.55
2016-09-28T02:32:58.147Z,1012.48
2016-09-28T02:33:19.933Z,1012.46
2016-09-28T02:33:41.651Z,1012.61
2016-09-28T02:34:03.382Z,1012.64
2016-09-28T02:34:25.113Z,1012.67
2016-09-28T02:34:46.831Z,1012.60
2016-09-28T02:35:08.560Z,1012.57
2016-09-28T02:35:30.282Z,1012.66
2016-09-28T02:35:52.000Z,1012.58
2016-09-28T02:36:13.718Z,1012.70
2016-09-28T02:36:35.436Z,1012.55
2016-09-28T02:36:57.165Z,1012.60
2016-09-28T02:37:18.886Z,1012.67
2016-09-28T02:37:40.643Z,1012.51
2016-09-28T02:38:02.359Z,1012.64
2016-09-28T02:38:24.163Z,1012.63
2016-09-28T02:38:45.888Z,1012.69
2016-09-28T02:39:07.603Z,1012.79
2016-09-28T02:39:29.318Z,1012.72
2016-09-28T02:39:51.037Z,1012.65
2016-09-28T02:40:12.756Z,1012.73
2016-09-28T02:40:34.470Z,1012.61
2016-09-28T02:40:56.198Z,1012.58
2016-09-28T02:41:22.695Z,1012.68
2016-09-28T02:41:44.426Z,1012.60
2016-09-28T02:42:10.963Z,1012.76
2016-09-28T02:42:32.692Z,1012.67
2016-09-28T02:42:54.400Z,1012.80
2016-09-28T02:43:16.125Z,1012.54
2016-09-28T02:43:37.840Z,1012.72
2016-09-28T02:43:59.565Z,1012.79
2016-09-28T02:44:21.300Z,1012.73
2016-09-28T02:44:43.076Z,1012.78
2016-09-28T02:45:04.798Z,1012.50
2016-09-28T02:45:26.518Z,1012.66
2016-09-28T02:45:48.240Z,1012.68
2016-09-28T02:46:09.969Z,1012.64
2016-09-28T02:46:31.686Z,1013.00
2016-09-28T02:46:53.408Z,1012.80
2016-09-28T02:47:15.120Z,1012.70
2016-09-28T02:47:36.858Z,1012.79
2016-09-28T02:47:58.580Z,1012.69
2016-09-28T02:48:20.309Z,1012.53
2016-09-28T02:48:42.103Z,1012.76
2016-09-28T02:49:03.831Z,1012.81
2016-09-28T02:49:25.552Z,1012.75
2016-09-28T02:49:47.271Z,1012.64
2016-09-28T02:50:08.999Z,1012.70
2016-09-28T02:50:30.794Z,1012.71
2016-09-28T02:50:52.513Z,1012.62
2016-09-28T02:51:14.234Z,1012.69
2016-09-28T02:51:35.949Z,1012.60
2016-09-28T02:51:57.674Z,1012.71
2016-09-28T02:52:19.405Z,1012.53
2016-09-28T02:52:41.127Z,1012.63
2016-09-28T02:53:02.845Z,1012.76
2016-09-28T02:53:24.576Z,1012.80
2016-09-28T02:53:46.311Z,1012.65
2016-09-28T02:54:08.030Z,1012.62
2016-09-28T02:54:29.751Z,1012.62
2016-09-28T02:54:51.469Z,1012.69
2016-09-28T02:55:13.188Z,1012.68
2016-09-28T02:55:34.902Z,1012.86
2016-09-28T02:55:56.632Z,1012.59
2016-09-28T02:56:18.340Z,1012.48
2016-09-28T02:56:40.062Z,1012.77
2016-09-28T02:57:01.789Z,1012.71
2016-09-28T02:57:23.504Z,1012.77
2016-09-28T02:57:45.236Z,1012.71
2016-09-28T02:58:06.955Z,1012.74
2016-09-28T02:58:28.676Z,1012.58
2016-09-28T02:58:50.401Z,1012.65
2016-09-28T02:59:12.125Z,1012.73
2016-09-28T02:59:33.860Z,1012.65
2016-09-28T02:59:55.585Z,1012.69
2016-09-28T03:00:17.310Z,1012.65
2016-09-28T03:00:39.031Z,1012.88
2016-09-28T03:01:00.765Z,1012.80
2016-09-28T03:01:22.478Z,1012.76
2016-09-28T03:01:48.993Z,1012.92
2016-09-28T03:02:10.689Z,1012.67
2016-09-28T03:02:32.410Z,1012.65
2016-09-28T03:02:54.141Z,1012.61
2016-09-28T03:03:48.209Z,1012.59
2016-09-28T03:04:09.921Z,1012.76
2016-09-28T03:04:31.643Z,1012.69
2016-09-28T03:04:53.364Z,1012.73
2016-09-28T03:05:15.086Z,1012.78
2016-09-28T03:05:36.807Z,1012.65
2016-09-28T03:05:58.526Z,1012.77
2016-09-28T03:06:20.253Z,1012.69
2016-09-28T03:06:46.743Z,1012.94
2016-09-28T03:07:08.459Z,1012.83
2016-09-28T03:07:30.177Z,1012.71
2016-09-28T03:07:56.682Z,1012.89
2016-09-28T03:08:18.398Z,1012.71
2016-09-28T03:08:40.132Z,1012.70
2016-09-28T03:09:01.837Z,1012.76
2016-09-28T03:09:23.562Z,1012.62
2016-09-28T03:09:45.292Z,1012.78
2016-09-28T03:10:07.092Z,1012.67
2016-09-28T03:10:28.813Z,1012.66
2016-09-28T03:10:50.542Z,1012.74
2016-09-28T03:11:12.256Z,1012.92
2016-09-28T03:11:33.972Z,1012.66
2016-09-28T03:11:55.697Z,1012.72
2016-09-28T03:12:17.461Z,1012.81
2016-09-28T03:12:39.185Z,1012.77
2016-09-28T03:13:00.897Z,1012.84
2016-09-28T03:13:22.606Z,1012.86
2016-09-28T03:13:44.327Z,1012.73
2016-09-28T03:14:06.053Z,1012.81
2016-09-28T03:14:27.778Z,1012.83
2016-09-28T03:14:49.498Z,1012.88
2016-09-28T03:15:11.306Z,1013.03
2016-09-28T03:15:33.057Z,1012.91
2016-09-28T03:15:54.779Z,1013.15
2016-09-28T03:16:16.498Z,1012.89
2016-09-28T03:16:38.219Z,1012.84
2016-09-28T03:16:59.953Z,1012.98
2016-09-28T03:17:21.672Z,1013.02
2016-09-28T03:17:43.470Z,1013.02
2016-09-28T03:18:05.211Z,1012.87
2016-09-28T03:18:26.929Z,1012.96
2016-09-28T03:18:48.644Z,1013.10
2016-09-28T03:19:10.360Z,1013.17
2016-09-28T03:19:32.079Z,1013.07
2016-09-28T03:19:53.807Z,1013.03
2016-09-28T03:20:15.528Z,1012.90
2016-09-28T03:20:37.249Z,1012.81
2016-09-28T03:20:58.968Z,1012.91
2016-09-28T03:21:20.702Z,1013.08
2016-09-28T03:21:42.424Z,1013.01
2016-09-28T03:22:06.725Z,1012.92
2016-09-28T03:22:28.453Z,1013.05
2016-09-28T03:22:50.180Z,1012.99
2016-09-28T03:23:11.976Z,1012.87
2016-09-28T03:23:33.698Z,1012.92
2016-09-28T03:23:55.419Z,1012.90
2016-09-28T03:24:17.140Z,1012.81
2016-09-28T03:24:38.939Z,1012.85
2016-09-28T03:25:00.658Z,1012.90
2016-09-28T03:25:22.376Z,1012.96
2016-09-28T03:25:44.113Z,1012.98
2016-09-28T03:26:27.544Z,1012.82
2016-09-28T03:26:49.262Z,1013.09
2016-09-28T03:27:11.045Z,1012.88
2016-09-28T03:27:32.764Z,1012.87
2016-09-28T03:27:54.484Z,1012.96
2016-09-28T03:28:20.984Z,1012.88
2016-09-28T03:28:42.696Z,1013.01
2016-09-28T03:29:04.414Z,1013.09
2016-09-28T03:29:26.136Z,1012.92
2016-09-28T03:29:47.854Z,1012.83
2016-09-28T03:30:09.586Z,1012.86
2016-09-28T03:30:31.329Z,1012.85
2016-09-28T03:30:57.826Z,1012.71
2016-09-28T03:31:19.548Z,1012.92
2016-09-28T03:31:41.262Z,1012.88
2016-09-28T03:32:02.991Z,1012.73
2016-09-28T03:32:24.696Z,1012.80
2016-09-28T03:32:46.418Z,1012.95
2016-09-28T03:33:08.157Z,1012.87
2016-09-28T03:33:29.873Z,1013.03
2016-09-28T03:33:51.593Z,1013.02
2016-09-28T03:34:13.311Z,1013.07
2016-09-28T03:34:35.051Z,1013.09
2016-09-28T03:34:56.773Z,1013.00
2016-09-28T03:35:18.490Z,1013.02
2016-09-28T03:35:40.223Z,1012.91
2016-09-28T03:36:01.938Z,1013.13
2016-09-28T03:36:23.671Z,1013.03
2016-09-28T03:36:45.384Z,1013.05
2016-09-28T03:37:07.169Z,1012.86
2016-09-28T03:37:28.898Z,1012.87
2016-09-28T03:37:55.397Z,1012.83
2016-09-28T03:38:17.131Z,1013.06
2016-09-28T03:38:38.853Z,1013.03
2016-09-28T03:39:00.578Z,1013.21
2016-09-28T03:39:22.303Z,1012.98
2016-09-28T03:39:44.100Z,1012.95
2016-09-28T03:40:05.816Z,1012.94
2016-09-28T03:40:27.535Z,1013.01
2016-09-28T03:40:49.270Z,1013.06
2016-09-28T03:41:11.000Z,1012.97
2016-09-28T03:41:32.732Z,1012.98
2016-09-28T03:41:54.453Z,1012.99
2016-09-28T03:42:16.172Z,1013.05
2016-09-28T03:42:37.893Z,1013.04
2016-09-28T03:43:04.418Z,1012.96
2016-09-28T03:43:26.127Z,1013.08
2016-09-28T03:43:47.878Z,1013.08
2016-09-28T03:44:09.605Z,1013.05
2016-09-28T03:44:31.339Z,1012.91
2016-09-28T03:44:53.067Z,1013.05
2016-09-28T03:45:19.567Z,1013.31
2016-09-28T03:45:41.288Z,1013.18
2016-09-28T03:46:03.010Z,1013.07
2016-09-28T03:46:24.725Z,1013.07
2016-09-28T03:46:46.463Z,1013.08
2016-09-28T03:47:08.177Z,1013.10
2016-09-28T03:47:29.925Z,1013.24
2016-09-28T03:47:51.657Z,1013.44
2016-09-28T03:48:13.397Z,1013.17
2016-09-28T03:48:35.134Z,1013.08
2016-09-28T03:48:56.863Z,1012.98
2016-09-28T03:49:18.594Z,1013.22
2016-09-28T03:49:40.326Z,1013.15
2016-09-28T03:50:02.168Z,1013.19
2016-09-28T03:50:23.819Z,1013.05
2016-09-28T03:50:45.543Z,1013.13
2016-09-28T03:51:07.263Z,1013.18
2016-09-28T03:51:28.991Z,1013.16
2016-09-28T03:51:50.712Z,1013.21
2016-09-28T03:52:12.440Z,1013.27
2016-09-28T03:52:34.159Z,1013.25
2016-09-28T03:52:55.871Z,1013.18
2016-09-28T03:53:17.596Z,1013.19
2016-09-28T03:53:44.094Z,1013.24
2016-09-28T03:54:05.820Z,1013.35
2016-09-28T03:54:27.551Z,1013.28
2016-09-28T03:54:49.276Z,1013.10
2016-09-28T03:55:11.007Z,1013.25
2016-09-28T03:55:32.732Z,1013.16
2016-09-28T03:55:54.460Z,1013.26
2016-09-28T03:56:16.188Z,1013.23
2016-09-28T03:56:37.899Z,1013.31
2016-09-28T03:56:59.621Z,1013.39
2016-09-28T03:57:21.346Z,1013.35
2016-09-28T03:57:47.839Z,1013.35
2016-09-28T03:58:09.567Z,1013.43
2016-09-28T03:58:31.286Z,1013.21
2016-09-28T03:58:53.001Z,1013.30
2016-09-28T03:59:14.729Z,1013.23
2016-09-28T03:59:36.447Z,1013.35
2016-09-28T03:59:58.162Z,1013.45
2016-09-28T04:00:19.900Z,1013.30
2016-09-28T04:00:41.619Z,1013.35
2016-09-28T04:01:03.346Z,1013.32
2016-09-28T04:01:25.070Z,1013.36
2016-09-28T04:01:46.872Z,1013.38
2016-09-28T04:02:08.601Z,1013.46
2016-09-28T04:02:30.328Z,1013.44
2016-09-28T04:02:52.041Z,1013.32
2016-09-28T04:03:13.763Z,1013.36
2016-09-28T04:03:35.477Z,1013.41
2016-09-28T04:03:57.209Z,1013.41
2016-09-28T04:04:19.026Z,1013.35
2016-09-28T04:04:40.753Z,1013.48
2016-09-28T04:05:02.476Z,1013.36
2016-09-28T04:05:24.201Z,1013.42
2016-09-28T04:05:45.935Z,1013.28
2016-09-28T04:06:07.652Z,1013.42
2016-09-28T04:06:29.381Z,1013.28
2016-09-28T04:06:51.100Z,1013.19
2016-09-28T04:07:12.900Z,1013.21
2016-09-28T04:07:34.613Z,1013.26
2016-09-28T04:07:56.334Z,1013.19
2016-09-28T04:08:18.046Z,1013.23
2016-09-28T04:08:39.839Z,1013.20
2016-09-28T04:09:01.567Z,1013.24
2016-09-28T04:09:28.073Z,1013.23
2016-09-28T04:09:49.884Z,1013.28
2016-09-28T04:10:11.602Z,1013.15
2016-09-28T04:10:33.323Z,1013.18
2016-09-28T04:10:55.070Z,1013.28
2016-09-28T04:11:16.792Z,1013.22
2016-09-28T04:11:38.530Z,1013.39
2016-09-28T04:12:00.255Z,1013.24
2016-09-28T04:12:26.827Z,1013.27
2016-09-28T04:12:48.555Z,1013.35
2016-09-28T04:13:10.274Z,1013.34
2016-09-28T04:13:31.993Z,1013.38
2016-09-28T04:13:53.727Z,1013.48
2016-09-28T04:14:15.452Z,1013.27
2016-09-28T04:14:37.173Z,1013.30
2016-09-28T04:15:03.707Z,1013.14
2016-09-28T04:15:25.428Z,1013.34
2016-09-28T04:15:47.160Z,1013.14
2016-09-28T04:16:08.879Z,1013.23
2016-09-28T04:16:30.616Z,1013.30
2016-09-28T04:16:52.311Z,1013.32
2016-09-28T04:17:14.049Z,1013.36
2016-09-28T04:17:35.768Z,1013.41
2016-09-28T04:17:57.493Z,1013.18
2016-09-28T04:18:19.212Z,1013.45
2016-09-28T04:18:40.936Z,1013.43
2016-09-28T04:19:02.654Z,1013.26
2016-09-28T04:19:24.379Z,1013.29
2016-09-28T04:19:47.099Z,1013.33
2016-09-28T04:20:08.872Z,1013.41
2016-09-28T04:20:30.587Z,1013.38
2016-09-28T04:20:52.309Z,1013.27
2016-09-28T04:21:14.040Z,1013.29
2016-09-28T04:21:35.768Z,1013.28
2016-09-28T04:21:57.493Z,1013.48
2016-09-28T04:22:19.224Z,1013.35
2016-09-28T04:22:40.942Z,1013.21
2016-09-28T04:23:02.730Z,1013.34
2016-09-28T04:23:24.447Z,1013.33
2016-09-28T04:23:46.168Z,1013.32
2016-09-28T04:24:07.886Z,1013.29
2016-09-28T04:24:29.605Z,1013.28
2016-09-28T04:24:56.098Z,1013.38
2016-09-28T04:25:17.821Z,1013.37
2016-09-28T04:25:39.551Z,1013.26
2016-09-28T04:26:01.275Z,1013.45
2016-09-28T04:26:23.000Z,1013.41
2016-09-28T04:26:44.796Z,1013.36
2016-09-28T04:27:06.514Z,1013.39
2016-09-28T04:27:28.239Z,1013.28
2016-09-28T04:27:49.967Z,1013.26
2016-09-28T04:28:11.689Z,1013.39
2016-09-28T04:28:33.415Z,1013.33
2016-09-28T04:28:55.145Z,1013.41
2016-09-28T04:29:16.873Z,1013.36
2016-09-28T04:29:38.594Z,1013.30